Kezdőlap
METAR-TAF:

METAR-TAF

Repülőterek :

Gibraltári repülőtér

Gibraltár, Gibraltár

földrajzi szélesség: 36-09N, földrajzi hosszúság: 005-21W, magasság: 5 m

Jelenlegi meteorológiai megfigyelések

A jelentés 1 órával és 2 perccel ezelõtt készült, 13:50 UTC
Keleti szél 8 kt
Hőmérséklet 25°C
Páratartalom 79%
Légköri nyomás 1019 hPa
Látótávolság: 9000 m
Kevés felhő 800 lábon
Száraz légköri homály

METAR: LXGB 191350Z 09008KT 9000 HZ FEW008 25/21 Q1019 NOSIG

Idő: 16:52 (14:52 UTC)

Előrejelzés

A jelentés 1 órával és 18 perccel ezelõtt készült, 13:34 UTC
Az előrejelzés 19-én 15 óra UTC és 19-én 22 óra UTC között érvényes
Keleti szél 8 kt
Látótávolság 10 km, vagy több
Kevés felhő 2000 lábon
19-én 18 óra UTC és 19-én 22 óra UTC között ideiglenes
Látótávolság: 7000 m
Száraz légköri homály

TAF: LXGB 191334Z 1915/1922 09008KT 9999 FEW020 TEMPO 1918/1922 7000 HZ

Meteorológiai megfigyelések és előrejelzések több, mint 4000 repülőtéren (METAR és TAF jelentéseket).

A térképen piros és sárga pontok jelzik az elérhető meteorológiai állomásokat.

Mozgassa az egeret a pont fölött, hogy megjelenjen az állomás neve.

Azután kattintson az időjárási megfigyelések és előrejelzések megtekintéséhez.

A térkép megváltoztatása: kattintson a fekete keresztel jelölt zöld gombra ráközelítéshez, a vonallal jelölt zöld gombra távolításhoz, vagy a zöld nyilakra a szomszédos térképek eléréséhez.


METAR-TAF: